Time;durP1;ratioP1;P1;durP2;ratioP2;P2;SDS_P1;SDS_P2;PMS_P1;PMS_P2;Temp;Humidity;BMP_temperature;BMP_pressure;BME280_temperature;BME280_humidity;BME280_pressure;Samples;Min_cycle;Max_cycle;Signal;HPM_P1;HPM_P2
2023/07/25 00:01:09;;;;;;;11.88;4.75;;;13.20;99.90;;;;;;5096850;28;20039;-74
2023/07/25 00:03:35;;;;;;;12.27;4.57;;;13.20;99.90;;;;;;5097006;28;20044;-74
2023/07/25 00:06:03;;;;;;;10.15;4.22;;;13.20;99.90;;;;;;5115038;28;20035;-73
2023/07/25 00:08:29;;;;;;;12.02;4.38;;;13.20;99.90;;;;;;5115187;28;20036;-74
2023/07/25 00:10:55;;;;;;;8.90;3.95;;;13.10;99.90;;;;;;5097200;28;20471;-74
2023/07/25 00:13:21;;;;;;;9.02;3.78;;;13.10;99.90;;;;;;5114763;28;20042;-74
2023/07/25 00:15:46;;;;;;;10.07;4.00;;;13.10;99.90;;;;;;5113631;28;20104;-73
2023/07/25 00:18:12;;;;;;;11.40;4.72;;;13.10;99.90;;;;;;5096942;28;20118;-74
2023/07/25 00:20:38;;;;;;;9.93;4.30;;;13.00;99.90;;;;;;5095738;28;20460;-74
2023/07/25 00:23:04;;;;;;;8.98;4.35;;;13.00;99.90;;;;;;5114879;28;20038;-74
2023/07/25 00:25:29;;;;;;;9.93;4.18;;;13.00;99.90;;;;;;5114651;28;20028;-74
2023/07/25 00:27:55;;;;;;;8.80;4.43;;;13.00;99.90;;;;;;5114832;28;20039;-74
2023/07/25 00:30:21;;;;;;;9.10;3.80;;;13.00;99.90;;;;;;5079717;28;20399;-74
2023/07/25 00:32:47;;;;;;;10.32;4.20;;;12.90;99.90;;;;;;5114794;28;20383;-73
2023/07/25 00:35:12;;;;;;;8.27;3.75;;;12.90;99.90;;;;;;5114654;28;20040;-72
2023/07/25 00:37:38;;;;;;;12.57;5.28;;;12.90;99.90;;;;;;5114282;28;20056;-72
2023/07/25 00:40:05;;;;;;;9.02;3.70;;;12.90;99.90;;;;;;5114307;28;20040;-73
2023/07/25 00:42:30;;;;;;;10.90;4.80;;;12.80;99.90;;;;;;5114501;28;20040;-73
2023/07/25 00:44:56;;;;;;;11.23;4.18;;;12.80;99.90;;;;;;5114562;28;20399;-73
2023/07/25 00:47:23;;;;;;;9.80;4.15;;;12.70;99.90;;;;;;5096326;28;20043;-73
2023/07/25 00:49:50;;;;;;;8.63;3.60;;;12.70;99.90;;;;;;5114152;28;20040;-73
2023/07/25 00:52:16;;;;;;;7.63;3.85;;;12.70;99.90;;;;;;5114084;28;20096;-73
2023/07/25 00:54:48;;;;;;;11.43;4.68;;;12.70;99.90;;;;;;5114279;28;20047;-73
2023/07/25 00:57:16;;;;;;;9.57;4.70;;;12.70;99.90;;;;;;5096281;28;20513;-73
2023/07/25 00:59:41;;;;;;;10.45;4.72;;;12.70;99.90;;;;;;5114226;28;20334;-73
2023/07/25 01:02:08;;;;;;;11.48;4.20;;;12.70;99.90;;;;;;5096069;28;20518;-73
2023/07/25 01:04:36;;;;;;;9.40;3.80;;;12.60;99.90;;;;;;5095961;28;20074;-73
2023/07/25 01:07:03;;;;;;;7.50;3.47;;;12.70;99.90;;;;;;5096191;28;20040;-73
2023/07/25 01:09:40;;;;;;;9.13;3.85;;;12.70;99.90;;;;;;5078948;28;20036;-74
2023/07/25 01:12:07;;;;;;;8.93;4.70;;;12.70;99.90;;;;;;5113854;28;20035;-73
2023/07/25 01:14:33;;;;;;;8.57;3.65;;;12.70;99.90;;;;;;5114081;28;20039;-73
2023/07/25 01:17:05;;;;;;;7.50;3.50;;;12.70;99.90;;;;;;5113800;28;20035;-74
2023/07/25 01:19:34;;;;;;;7.28;3.38;;;12.70;99.90;;;;;;5096571;28;20035;-73
2023/07/25 01:22:00;;;;;;;8.98;3.45;;;12.80;99.90;;;;;;5078649;28;20123;-74
2023/07/25 01:24:26;;;;;;;8.20;3.80;;;12.80;99.90;;;;;;5095427;28;20113;-73
2023/07/25 01:26:52;;;;;;;8.75;4.10;;;12.80;99.90;;;;;;5095712;28;20104;-74
2023/07/25 01:29:18;;;;;;;7.57;3.10;;;12.80;99.90;;;;;;5113891;28;20044;-73
2023/07/25 01:31:43;;;;;;;9.25;3.50;;;12.70;99.90;;;;;;5113470;28;20497;-74
2023/07/25 01:34:09;;;;;;;8.27;3.35;;;12.70;99.90;;;;;;5113805;28;20046;-74
2023/07/25 01:36:35;;;;;;;7.93;3.63;;;12.70;99.90;;;;;;5078508;28;20079;-73
2023/07/25 01:39:00;;;;;;;9.45;3.92;;;12.70;99.90;;;;;;5095218;28;20044;-73
2023/07/25 01:41:26;;;;;;;8.15;3.63;;;12.60;99.90;;;;;;5113748;28;20036;-74
2023/07/25 01:43:52;;;;;;;8.50;3.50;;;12.60;99.90;;;;;;5095364;28;20522;-74
2023/07/25 01:46:17;;;;;;;7.75;3.50;;;12.60;99.90;;;;;;5113698;28;20040;-74
2023/07/25 01:48:43;;;;;;;8.10;2.90;;;12.50;99.90;;;;;;5095525;28;20035;-74
2023/07/25 01:51:09;;;;;;;7.45;2.90;;;12.60;99.90;;;;;;5095411;28;20043;-74
2023/07/25 01:53:35;;;;;;;7.10;3.03;;;12.60;99.90;;;;;;5113605;28;20040;-74
2023/07/25 01:56:01;;;;;;;10.80;3.92;;;12.70;99.90;;;;;;5113646;28;20551;-74
2023/07/25 01:58:26;;;;;;;11.80;3.83;;;12.70;99.90;;;;;;5113577;28;20062;-74
2023/07/25 02:00:59;;;;;;;8.00;2.95;;;12.60;99.90;;;;;;5095353;28;20483;-74
2023/07/25 02:03:26;;;;;;;8.95;3.20;;;12.60;99.90;;;;;;5113282;28;20081;-74
2023/07/25 02:05:52;;;;;;;8.25;3.80;;;12.60;99.90;;;;;;5094945;28;20051;-74
2023/07/25 02:08:18;;;;;;;8.77;3.13;;;12.60;99.90;;;;;;5113462;28;20097;-73
2023/07/25 02:10:43;;;;;;;6.32;3.03;;;12.40;99.90;;;;;;5113456;28;20051;-73
2023/07/25 02:13:11;;;;;;;10.98;3.90;;;12.40;99.90;;;;;;5095223;28;20039;-73
2023/07/25 02:15:37;;;;;;;9.30;4.20;;;12.40;99.90;;;;;;5113529;28;20035;-73
2023/07/25 02:18:03;;;;;;;8.73;3.95;;;12.40;99.90;;;;;;5113448;28;20039;-74
2023/07/25 02:20:32;;;;;;;9.10;4.18;;;12.30;99.90;;;;;;5094841;28;20039;-74
2023/07/25 02:22:59;;;;;;;7.82;3.47;;;12.30;99.90;;;;;;5113375;28;20040;-73
2023/07/25 02:25:26;;;;;;;10.45;4.47;;;12.30;99.90;;;;;;5095182;28;20379;-73
2023/07/25 02:27:52;;;;;;;8.98;3.97;;;12.20;99.90;;;;;;5112981;28;20047;-73
2023/07/25 02:30:18;;;;;;;10.68;3.63;;;12.20;99.90;;;;;;5113004;28;20044;-73
2023/07/25 02:32:44;;;;;;;8.10;3.75;;;12.20;99.90;;;;;;5094953;28;20039;-74
2023/07/25 02:35:09;;;;;;;9.07;3.45;;;12.20;99.90;;;;;;5094775;28;20046;-74
2023/07/25 02:37:37;;;;;;;8.68;3.92;;;12.20;99.90;;;;;;5112685;28;20058;-74
2023/07/25 02:40:04;;;;;;;11.10;4.00;;;12.20;99.90;;;;;;5094854;28;20044;-74
2023/07/25 02:42:29;;;;;;;11.63;4.25;;;12.20;99.90;;;;;;5113225;28;20043;-74
2023/07/25 02:44:55;;;;;;;10.68;3.97;;;12.20;99.90;;;;;;5116911;28;20395;-74
2023/07/25 02:47:21;;;;;;;8.98;4.40;;;12.20;99.90;;;;;;5098691;28;20054;-74
2023/07/25 02:49:47;;;;;;;12.27;3.70;;;12.10;99.90;;;;;;5098288;28;20051;-74
2023/07/25 02:52:12;;;;;;;9.32;3.85;;;12.10;99.90;;;;;;5116724;28;20059;-74
2023/07/25 02:54:38;;;;;;;12.00;4.60;;;12.10;99.90;;;;;;5081225;28;20055;-74
2023/07/25 02:57:05;;;;;;;11.25;4.60;;;12.20;99.90;;;;;;5098041;28;20114;-74
2023/07/25 02:59:30;;;;;;;11.07;4.00;;;12.10;99.90;;;;;;5116690;28;20039;-74
2023/07/25 03:01:56;;;;;;;8.98;4.07;;;12.10;99.90;;;;;;5081274;28;20425;-74
2023/07/25 03:04:22;;;;;;;11.50;4.32;;;12.10;99.90;;;;;;5116555;28;20040;-74
2023/07/25 03:06:48;;;;;;;10.77;3.38;;;12.10;99.90;;;;;;5097925;28;20079;-74
2023/07/25 03:09:13;;;;;;;9.32;3.90;;;12.20;99.90;;;;;;5116487;28;20386;-74
2023/07/25 03:11:39;;;;;;;9.48;3.50;;;12.20;99.90;;;;;;5116410;28;20043;-74
2023/07/25 03:14:05;;;;;;;8.93;3.80;;;12.10;99.90;;;;;;5081098;28;20123;-74
2023/07/25 03:16:31;;;;;;;9.05;4.53;;;12.10;99.90;;;;;;5116049;28;20028;-74
2023/07/25 03:18:56;;;;;;;10.10;4.40;;;12.10;99.90;;;;;;5097794;28;20031;-74
2023/07/25 03:21:22;;;;;;;9.57;4.38;;;12.10;99.90;;;;;;5097904;28;20088;-74
2023/07/25 03:23:48;;;;;;;11.63;4.43;;;12.00;99.90;;;;;;5080777;28;20403;-74
2023/07/25 03:26:14;;;;;;;12.93;5.00;;;12.10;99.90;;;;;;5115760;28;20044;-74
2023/07/25 03:28:39;;;;;;;12.27;4.80;;;12.10;99.90;;;;;;5116052;28;20043;-73
2023/07/25 03:31:06;;;;;;;10.20;4.57;;;12.00;99.90;;;;;;5098071;28;20040;-73
2023/07/25 03:33:32;;;;;;;9.73;4.07;;;12.00;99.90;;;;;;5097247;28;20047;-73
2023/07/25 03:35:58;;;;;;;8.80;4.30;;;12.00;99.90;;;;;;5115417;28;20032;-72
2023/07/25 03:38:24;;;;;;;9.32;4.57;;;12.00;99.90;;;;;;5115332;28;20087;-73
2023/07/25 03:40:49;;;;;;;10.40;4.13;;;12.00;99.90;;;;;;5097376;28;20542;-73
2023/07/25 03:43:15;;;;;;;12.80;5.60;;;12.00;99.90;;;;;;5097645;28;20039;-73
2023/07/25 03:45:41;;;;;;;10.63;4.07;;;11.90;99.90;;;;;;5097424;28;20054;-73
2023/07/25 03:48:08;;;;;;;12.95;4.15;;;12.00;99.90;;;;;;5097177;28;20036;-73
2023/07/25 03:50:33;;;;;;;10.45;4.38;;;11.90;99.90;;;;;;5115631;28;20483;-74
2023/07/25 03:52:59;;;;;;;9.70;4.20;;;12.00;99.90;;;;;;5097016;28;20047;-74
2023/07/25 03:55:25;;;;;;;9.52;4.10;;;12.00;99.90;;;;;;5115037;28;20088;-74
2023/07/25 03:57:51;;;;;;;10.38;4.53;;;12.00;99.90;;;;;;5115252;28;20035;-74
2023/07/25 04:00:17;;;;;;;8.57;4.00;;;12.00;99.90;;;;;;5097100;28;20036;-74
2023/07/25 04:02:43;;;;;;;9.82;4.50;;;12.00;99.90;;;;;;5115087;28;20415;-74
2023/07/25 04:05:09;;;;;;;9.00;4.60;;;12.00;99.90;;;;;;5115379;28;20057;-74
2023/07/25 04:07:35;;;;;;;11.48;4.68;;;12.00;99.90;;;;;;5115029;28;20027;-74
2023/07/25 04:10:01;;;;;;;12.20;4.72;;;12.00;99.90;;;;;;5114992;28;20036;-74
2023/07/25 04:12:27;;;;;;;12.70;4.65;;;12.00;99.90;;;;;;5115277;28;20071;-74
2023/07/25 04:14:53;;;;;;;12.18;4.85;;;12.00;99.90;;;;;;5115132;28;20521;-75
2023/07/25 04:17:18;;;;;;;9.75;4.45;;;12.10;99.90;;;;;;5114803;28;20039;-74
2023/07/25 04:19:44;;;;;;;9.50;4.65;;;12.10;99.90;;;;;;5096588;28;20035;-74
2023/07/25 04:22:10;;;;;;;11.73;4.43;;;12.10;99.90;;;;;;5115095;28;20088;-74
2023/07/25 04:24:36;;;;;;;10.52;5.00;;;12.10;99.90;;;;;;5114689;28;20035;-74
2023/07/25 04:27:02;;;;;;;9.82;4.47;;;12.20;99.90;;;;;;5079627;28;20036;-74
2023/07/25 04:29:28;;;;;;;16.02;5.28;;;12.20;99.90;;;;;;5096802;28;20043;-74
2023/07/25 04:31:53;;;;;;;11.48;4.75;;;12.30;99.90;;;;;;5096733;28;20369;-74
2023/07/25 04:34:19;;;;;;;9.65;4.68;;;12.40;99.90;;;;;;5114533;28;20055;-74
2023/07/25 04:36:45;;;;;;;14.20;5.65;;;12.40;99.90;;;;;;5096078;28;20048;-74
2023/07/25 04:39:11;;;;;;;10.05;4.75;;;12.50;99.90;;;;;;5079641;28;20039;-74
2023/07/25 04:41:36;;;;;;;11.13;5.00;;;12.50;99.90;;;;;;5114684;28;20035;-73
2023/07/25 04:44:04;;;;;;;10.48;4.93;;;12.50;99.90;;;;;;5096290;28;20039;-73
2023/07/25 04:46:30;;;;;;;12.43;5.25;;;12.60;99.90;;;;;;5114499;28;20074;-74
2023/07/25 04:48:56;;;;;;;13.32;5.68;;;12.60;99.90;;;;;;5096107;28;20510;-74
2023/07/25 04:51:25;;;;;;;11.60;4.38;;;12.70;99.90;;;;;;5096455;28;20033;-74
2023/07/25 04:53:50;;;;;;;13.52;5.07;;;12.70;99.90;;;;;;5079379;28;20044;-74
2023/07/25 04:56:16;;;;;;;13.27;5.32;;;12.70;99.90;;;;;;5114403;28;20114;-74
2023/07/25 04:58:42;;;;;;;12.38;4.70;;;12.80;99.90;;;;;;5095826;28;20043;-73
2023/07/25 05:01:09;;;;;;;12.13;4.40;;;12.80;99.90;;;;;;5114366;28;20039;-73
2023/07/25 05:03:35;;;;;;;13.23;5.20;;;12.90;99.90;;;;;;5113906;28;20051;-74
2023/07/25 05:06:01;;;;;;;9.68;4.50;;;12.90;99.90;;;;;;5113431;28;20042;-74
2023/07/25 05:08:26;;;;;;;11.05;4.25;;;13.00;99.90;;;;;;5114157;28;20044;-74
2023/07/25 05:10:53;;;;;;;13.25;4.70;;;13.00;99.90;;;;;;5096043;28;20082;-74
2023/07/25 05:13:19;;;;;;;10.05;4.18;;;13.10;99.90;;;;;;5095669;28;20043;-74
2023/07/25 05:15:45;;;;;;;12.70;4.90;;;13.20;99.90;;;;;;5114156;28;20091;-73
2023/07/25 05:18:11;;;;;;;12.75;4.50;;;13.20;99.90;;;;;;5113849;28;20046;-73
2023/07/25 05:20:36;;;;;;;9.38;3.95;;;13.30;99.90;;;;;;5113714;28;20039;-73
2023/07/25 05:23:03;;;;;;;13.63;4.40;;;13.30;99.90;;;;;;5113767;28;20118;-72
2023/07/25 05:25:28;;;;;;;10.07;4.50;;;13.40;99.90;;;;;;5114043;28;20047;-73
2023/07/25 05:27:54;;;;;;;11.38;4.60;;;13.50;99.90;;;;;;5114110;28;20028;-73
2023/07/25 05:30:20;;;;;;;11.82;4.50;;;13.50;99.90;;;;;;5095607;28;20051;-72
2023/07/25 05:32:48;;;;;;;9.57;4.00;;;13.60;99.90;;;;;;5113626;28;20047;-73
2023/07/25 05:35:14;;;;;;;12.30;4.30;;;13.70;99.90;;;;;;5095404;28;20039;-72
2023/07/25 05:37:39;;;;;;;12.63;4.32;;;13.70;99.90;;;;;;5113626;28;20122;-73
2023/07/25 05:40:06;;;;;;;10.68;3.97;;;13.80;99.90;;;;;;5095821;28;20040;-73
2023/07/25 05:42:32;;;;;;;10.85;3.97;;;13.80;99.90;;;;;;5095683;28;20491;-73
2023/07/25 05:45:01;;;;;;;9.65;3.67;;;13.90;99.90;;;;;;5095320;28;20051;-73
2023/07/25 05:47:28;;;;;;;10.88;3.67;;;14.00;99.90;;;;;;5113422;28;20047;-73
2023/07/25 05:49:54;;;;;;;10.23;3.50;;;14.10;99.90;;;;;;5113422;28;20043;-73
2023/07/25 05:52:20;;;;;;;11.32;3.80;;;14.10;99.90;;;;;;5113685;28;20084;-73
2023/07/25 05:54:46;;;;;;;9.45;3.30;;;14.20;99.90;;;;;;5113603;28;20118;-72
2023/07/25 05:57:12;;;;;;;10.45;3.70;;;14.30;99.90;;;;;;5113277;28;20073;-73
2023/07/25 05:59:40;;;;;;;13.93;3.75;;;14.40;99.90;;;;;;5113413;28;20028;-73
2023/07/25 06:02:07;;;;;;;9.85;3.70;;;14.40;99.90;;;;;;5095129;28;20046;-73
2023/07/25 06:04:36;;;;;;;10.88;3.67;;;14.50;99.90;;;;;;5113648;28;20046;-73
2023/07/25 06:07:01;;;;;;;10.55;3.30;;;14.50;99.90;;;;;;5095253;28;20044;-73
2023/07/25 06:09:27;;;;;;;13.13;3.42;;;14.60;99.90;;;;;;5095405;28;20048;-73
2023/07/25 06:11:55;;;;;;;10.38;3.35;;;14.80;99.90;;;;;;5094886;28;20047;-75
2023/07/25 06:14:21;;;;;;;11.30;3.05;;;15.20;99.90;;;;;;5113426;28;20040;-75
2023/07/25 06:16:47;;;;;;;11.38;3.00;;;15.80;99.90;;;;;;5095099;28;20057;-74
2023/07/25 06:19:13;;;;;;;9.93;3.08;;;16.10;99.90;;;;;;5097938;28;20781;-74
2023/07/25 06:21:39;;;;;;;9.20;3.00;;;16.40;99.90;;;;;;5099104;28;20101;-75
2023/07/25 06:24:05;;;;;;;9.73;2.72;;;16.80;99.90;;;;;;5099035;28;20044;-74
2023/07/25 06:26:30;;;;;;;8.18;2.70;;;17.20;99.90;;;;;;5081998;28;20070;-74
2023/07/25 06:28:56;;;;;;;9.15;2.28;;;17.70;99.90;;;;;;5117339;28;20036;-74
2023/07/25 06:31:22;;;;;;;9.90;2.83;;;17.90;99.90;;;;;;5098747;28;20065;-75
2023/07/25 06:33:48;;;;;;;8.82;2.45;;;18.70;99.90;;;;;;5117107;28;20051;-73
2023/07/25 06:36:13;;;;;;;10.30;2.53;;;18.90;99.90;;;;;;5098698;28;20419;-74
2023/07/25 06:38:41;;;;;;;10.23;2.22;;;18.90;99.90;;;;;;5078065;28;20127;-75
2023/07/25 06:41:07;;;;;;;9.40;2.33;;;18.80;99.90;;;;;;5096679;28;20036;-74
2023/07/25 06:43:33;;;;;;;7.63;2.10;;;18.70;99.90;;;;;;5095078;28;20032;-75
2023/07/25 06:45:59;;;;;;;8.45;2.25;;;18.80;99.90;;;;;;5095465;28;20040;-74
2023/07/25 06:48:25;;;;;;;8.95;2.17;;;18.80;99.90;;;;;;5061696;28;20495;-74
2023/07/25 06:50:53;;;;;;;7.88;1.98;;;18.90;99.90;;;;;;5078207;28;20449;-74
2023/07/25 06:53:19;;;;;;;9.23;2.10;;;18.80;99.90;;;;;;5096411;28;20031;-75
2023/07/25 06:55:45;;;;;;;10.60;2.20;;;19.00;99.90;;;;;;5095985;28;20047;-75
2023/07/25 06:58:11;;;;;;;7.10;2.22;;;19.20;99.90;;;;;;5095037;28;20130;-75
2023/07/25 07:00:37;;;;;;;8.55;2.10;;;19.50;99.90;;;;;;5096043;28;20114;-75
2023/07/25 07:03:09;;;;;;;9.30;1.95;;;19.50;99.90;;;;;;5094614;28;20029;-74
2023/07/25 07:05:38;;;;;;;;;;;19.70;99.90;;;;;;5096598;28;20081;-75
2023/07/25 07:08:04;;;;;;;8.30;1.80;;;20.10;99.90;;;;;;5061119;28;19966;-75
2023/07/25 07:10:32;;;;;;;7.68;1.88;;;20.50;99.90;;;;;;5096040;28;20044;-74
2023/07/25 07:13:06;;;;;;;9.20;2.10;;;20.60;99.90;;;;;;5078216;28;20079;-75
2023/07/25 07:15:35;;;;;;;8.82;1.83;;;20.50;99.90;;;;;;5094383;28;20044;-74
2023/07/25 07:18:01;;;;;;;11.52;2.10;;;20.50;99.90;;;;;;5095881;28;20032;-74
2023/07/25 07:20:27;;;;;;;10.60;2.00;;;20.40;99.90;;;;;;5095885;28;20119;-75
2023/07/25 07:23:01;;;;;;;9.00;2.20;;;20.70;99.90;;;;;;5095841;28;20446;-76
2023/07/25 07:25:27;;;;;;;8.88;1.73;;;21.00;99.90;;;;;;5077352;28;20101;-75
2023/07/25 07:27:53;;;;;;;7.82;1.83;;;20.80;99.90;;;;;;5095829;28;20036;-74
2023/07/25 07:30:19;;;;;;;8.18;1.70;;;20.90;99.90;;;;;;5060369;28;20050;-75
2023/07/25 07:32:45;;;;;;;8.48;1.70;;;21.00;99.90;;;;;;5095645;28;20048;-75
2023/07/25 07:35:11;;;;;;;8.65;1.55;;;21.10;99.90;;;;;;5095392;28;20437;-75
2023/07/25 07:37:37;;;;;;;6.75;1.60;;;21.10;99.90;;;;;;5105967;28;20094;-75
2023/07/25 07:40:04;;;;;;;7.82;1.67;;;20.90;99.90;;;;;;5115898;28;20119;-74
2023/07/25 07:42:30;;;;;;;9.90;2.00;;;20.60;99.30;;;;;;5097894;28;20035;-74
2023/07/25 07:44:58;;;;;;;8.13;1.67;;;20.30;98.70;;;;;;5097568;28;20124;-75
2023/07/25 07:47:24;;;;;;;8.20;1.50;;;20.60;99.80;;;;;;5115343;28;20039;-76
2023/07/25 07:49:53;;;;;;;6.20;1.40;;;20.30;98.80;;;;;;5097294;28;20050;-75
2023/07/25 07:52:19;;;;;;;6.97;1.70;;;20.20;99.20;;;;;;5098038;28;20039;-75
2023/07/25 07:54:45;;;;;;;7.07;1.50;;;19.80;97.70;;;;;;5080236;28;20181;-74
2023/07/25 07:57:13;;;;;;;9.10;1.52;;;19.70;98.20;;;;;;5097084;28;20115;-76
2023/07/25 07:59:43;;;;;;;9.32;1.50;;;19.90;99.10;;;;;;5115597;28;20387;-75
2023/07/25 08:02:08;;;;;;;6.70;1.48;;;20.20;99.00;;;;;;5097129;28;20097;-75
2023/07/25 08:04:34;;;;;;;5.95;1.40;;;20.70;99.90;;;;;;5115512;28;20043;-75
2023/07/25 08:07:00;;;;;;;7.00;1.30;;;21.20;96.70;;;;;;5115065;28;20051;-75
2023/07/25 08:09:26;;;;;;;7.32;1.50;;;21.30;96.10;;;;;;5080317;28;20130;-75
2023/07/25 08:11:52;;;;;;;6.18;1.48;;;21.40;96.00;;;;;;5079549;28;20107;-75
2023/07/25 08:14:17;;;;;;;4.03;1.00;;;21.40;96.50;;;;;;5096907;28;20069;-75
2023/07/25 08:16:43;;;;;;;7.55;1.30;;;21.40;95.50;;;;;;5096923;28;20540;-75
2023/07/25 08:19:09;;;;;;;7.20;1.30;;;21.10;94.60;;;;;;5115167;28;20034;-75
2023/07/25 08:21:35;;;;;;;7.65;1.20;;;20.70;94.50;;;;;;5114798;28;20483;-75
2023/07/25 08:24:01;;;;;;;5.80;1.15;;;20.60;95.20;;;;;;5114829;28;20043;-75
2023/07/25 08:26:27;;;;;;;6.30;1.20;;;20.80;96.70;;;;;;5096463;28;20511;-75
2023/07/25 08:28:53;;;;;;;6.57;1.23;;;20.70;95.00;;;;;;5096337;28;20510;-74
2023/07/25 08:31:19;;;;;;;5.88;1.25;;;20.40;94.50;;;;;;5114903;28;20373;-75
2023/07/25 08:33:45;;;;;;;5.05;1.00;;;20.40;95.80;;;;;;5114826;28;20115;-74
2023/07/25 08:36:11;;;;;;;7.45;1.20;;;20.70;95.70;;;;;;5114667;28;20116;-73
2023/07/25 08:38:41;;;;;;;5.07;1.10;;;20.60;93.90;;;;;;5096288;28;20055;-74
2023/07/25 08:41:15;;;;;;;4.75;1.10;;;21.00;94.20;;;;;;5095281;28;20044;-75
2023/07/25 08:43:43;;;;;;;5.28;1.00;;;21.50;94.60;;;;;;5115021;28;20088;-75
2023/07/25 08:46:10;;;;;;;5.03;1.10;;;21.50;93.30;;;;;;5114605;28;20039;-75
2023/07/25 08:48:47;;;;;;;4.97;0.90;;;21.50;93.40;;;;;;5114277;28;20100;-75
2023/07/25 08:51:24;;;;;;;3.78;0.90;;;21.30;92.40;;;;;;5079470;28;20050;-75
2023/07/25 08:54:08;;;;;;;6.50;1.15;;;21.20;92.60;;;;;;5114102;28;20040;-75
2023/07/25 08:56:35;;;;;;;5.65;1.20;;;21.10;93.20;;;;;;5114115;28;20040;-74
2023/07/25 08:59:06;;;;;;;3.92;1.10;;;21.00;92.90;;;;;;5096361;28;20035;-74
2023/07/25 09:01:32;;;;;;;4.60;1.08;;;21.00;92.40;;;;;;5114144;28;20104;-75
2023/07/25 09:03:59;;;;;;;5.82;1.15;;;21.20;92.00;;;;;;5114407;28;20040;-74
2023/07/25 09:06:25;;;;;;;4.78;1.10;;;21.10;92.00;;;;;;5096051;28;20047;-74
2023/07/25 09:08:57;;;;;;;5.10;1.00;;;20.90;91.80;;;;;;5096533;28;20084;-74
2023/07/25 09:11:23;;;;;;;5.05;1.27;;;20.50;91.40;;;;;;5114301;28;20050;-75
2023/07/25 09:13:49;;;;;;;4.28;1.00;;;20.20;92.50;;;;;;5095829;28;20039;-75
2023/07/25 09:16:15;;;;;;;6.10;1.10;;;20.00;93.50;;;;;;5095712;28;20113;-74
2023/07/25 09:18:42;;;;;;;5.22;1.10;;;20.20;93.30;;;;;;5095970;28;20139;-74
2023/07/25 09:21:08;;;;;;;5.40;1.10;;;20.40;93.70;;;;;;5078657;28;20116;-75
2023/07/25 09:23:34;;;;;;;5.22;1.00;;;20.70;93.80;;;;;;5113992;28;20043;-75
2023/07/25 09:26:10;;;;;;;4.45;1.10;;;21.20;93.40;;;;;;5113671;28;20047;-74
2023/07/25 09:28:46;;;;;;;5.22;1.10;;;21.20;93.10;;;;;;5095619;28;20036;-75
2023/07/25 09:31:12;;;;;;;5.80;1.10;;;20.90;92.50;;;;;;5113987;28;20100;-75
2023/07/25 09:33:39;;;;;;;5.38;1.20;;;20.70;92.30;;;;;;5095693;28;20080;-75
2023/07/25 09:36:08;;;;;;;3.33;0.80;;;20.70;91.30;;;;;;5113578;28;20043;-75
2023/07/25 09:38:34;;;;;;;3.75;0.90;;;20.60;90.60;;;;;;5113340;28;20055;-74
2023/07/25 09:41:03;;;;;;;6.03;1.10;;;20.80;90.80;;;;;;5113947;28;20042;-74
2023/07/25 09:43:29;;;;;;;4.13;1.10;;;21.00;91.20;;;;;;5095476;28;20040;-73
2023/07/25 09:45:55;;;;;;;4.00;1.00;;;21.40;91.00;;;;;;5113747;28;20039;-74
2023/07/25 09:48:21;;;;;;;5.18;1.20;;;21.60;89.90;;;;;;5113853;28;20456;-74
2023/07/25 09:50:48;;;;;;;5.45;0.90;;;21.80;90.20;;;;;;5113371;28;20172;-74
2023/07/25 09:53:27;;;;;;;5.35;0.90;;;21.70;89.20;;;;;;5116758;28;20046;-76
2023/07/25 09:55:53;;;;;;;5.60;1.00;;;21.40;88.20;;;;;;5117909;28;20129;-74
2023/07/25 09:58:19;;;;;;;6.45;1.02;;;20.80;88.20;;;;;;5117828;28;20503;-75
2023/07/25 10:00:48;;;;;;;3.92;0.85;;;20.80;89.10;;;;;;5117850;28;20040;-75
2023/07/25 10:03:17;;;;;;;5.10;1.10;;;21.10;90.10;;;;;;5099684;28;20067;-74
2023/07/25 10:05:44;;;;;;;5.00;1.08;;;21.30;91.00;;;;;;5099797;28;20040;-74
2023/07/25 10:08:14;;;;;;;5.38;1.10;;;21.40;90.00;;;;;;5099119;28;20041;-74
2023/07/25 10:10:41;;;;;;;6.97;1.00;;;21.20;88.20;;;;;;5099136;28;20135;-76
2023/07/25 10:13:08;;;;;;;5.43;1.20;;;20.80;88.50;;;;;;5099263;28;20479;-74
2023/07/25 10:15:35;;;;;;;4.10;1.00;;;20.70;90.30;;;;;;5117486;28;20039;-74
2023/07/25 10:18:16;;;;;;;4.00;0.90;;;21.00;91.20;;;;;;5099055;28;20075;-75
2023/07/25 10:20:42;;;;;;;3.97;1.00;;;21.40;90.10;;;;;;5101295;28;20042;-74
2023/07/25 10:23:16;;;;;;;4.90;0.95;;;21.80;85.10;;;;;;5117145;28;20039;-74
2023/07/25 10:25:46;;;;;;;4.75;1.10;;;22.00;87.00;;;;;;5083693;28;20038;-76
2023/07/25 10:28:12;;;;;;;5.35;1.10;;;22.20;85.30;;;;;;5098873;28;20089;-75
2023/07/25 10:30:48;;;;;;;4.70;1.00;;;22.30;85.90;;;;;;5082046;28;20479;-75
2023/07/25 10:33:16;;;;;;;6.22;1.20;;;22.60;86.70;;;;;;5098916;28;20031;-76
2023/07/25 10:35:54;;;;;;;4.47;1.02;;;22.80;86.10;;;;;;5098846;28;20089;-74
2023/07/25 10:38:42;;;;;;;2.78;0.80;;;22.80;81.80;;;;;;5100082;28;20066;-74
2023/07/25 10:41:10;;;;;;;4.97;1.02;;;22.30;79.90;;;;;;5099170;28;20039;-75
2023/07/25 10:43:46;;;;;;;4.60;1.10;;;21.80;84.00;;;;;;5116665;28;20127;-74
2023/07/25 10:46:31;;;;;;;4.53;1.00;;;21.70;83.40;;;;;;5097712;28;20050;-73
2023/07/25 10:49:04;;;;;;;3.17;0.90;;;21.60;83.80;;;;;;5116991;28;20499;-74
2023/07/25 10:51:47;;;;;;;5.20;0.90;;;21.40;80.30;;;;;;5117002;28;20110;-75
2023/07/25 10:54:20;;;;;;;4.53;1.00;;;21.20;79.50;;;;;;5081762;28;20050;-75
2023/07/25 10:57:17;;;;;;;3.28;0.90;;;21.20;82.00;;;;;;5116531;28;20043;-74
2023/07/25 11:00:00;;;;;;;3.42;0.98;;;21.50;81.90;;;;;;5116713;28;20510;-75
2023/07/25 11:02:31;;;;;;;4.15;1.00;;;21.80;81.80;;;;;;5116675;28;20036;-74
2023/07/25 11:05:12;;;;;;;5.85;1.17;;;21.70;81.10;;;;;;5097606;28;20044;-75
2023/07/25 11:07:51;;;;;;;5.83;1.17;;;21.50;82.70;;;;;;5098201;28;20040;-75
2023/07/25 11:10:34;;;;;;;5.60;1.15;;;21.30;83.70;;;;;;5097983;28;20050;-75
2023/07/25 11:13:01;;;;;;;6.03;1.10;;;21.10;83.00;;;;;;5097437;28;20096;-74
2023/07/25 11:15:29;;;;;;;6.57;1.10;;;20.80;85.50;;;;;;5097913;28;20064;-73
2023/07/25 11:17:55;;;;;;;5.22;1.15;;;21.00;87.30;;;;;;5116020;28;20039;-74
2023/07/25 11:20:22;;;;;;;5.50;1.25;;;21.20;87.20;;;;;;5116231;28;20184;-74
2023/07/25 11:22:49;;;;;;;6.45;1.20;;;21.50;88.80;;;;;;5098123;28;20042;-75
2023/07/25 11:25:15;;;;;;;4.63;1.10;;;21.90;86.10;;;;;;5116241;28;20391;-74
2023/07/25 11:27:42;;;;;;;4.28;0.90;;;21.90;85.40;;;;;;5115869;28;20035;-74
2023/07/25 11:30:19;;;;;;;5.65;1.20;;;21.70;87.10;;;;;;5116168;28;20052;-73
2023/07/25 11:32:50;;;;;;;5.20;1.27;;;21.40;86.30;;;;;;5080900;28;20051;-74
2023/07/25 11:35:16;;;;;;;4.90;1.10;;;20.90;87.70;;;;;;5115696;28;20100;-74
2023/07/25 11:37:46;;;;;;;4.97;1.20;;;20.70;90.00;;;;;;5115749;28;20559;-75
2023/07/25 11:40:27;;;;;;;5.57;1.10;;;20.40;89.90;;;;;;5064234;28;20047;-74
2023/07/25 11:42:53;;;;;;;7.05;1.25;;;20.30;90.20;;;;;;5097306;28;20046;-75
2023/07/25 11:45:23;;;;;;;6.05;1.30;;;20.10;90.10;;;;;;5115495;28;20039;-74
2023/07/25 11:47:51;;;;;;;6.32;1.30;;;20.20;91.00;;;;;;5080640;28;20134;-75
2023/07/25 11:50:19;;;;;;;4.65;1.15;;;20.60;91.70;;;;;;5097422;28;20047;-75
2023/07/25 11:52:46;;;;;;;6.20;1.17;;;20.90;89.90;;;;;;5115391;28;20074;-75
2023/07/25 11:55:13;;;;;;;3.75;0.93;;;21.10;90.10;;;;;;5115584;28;20126;-74
2023/07/25 11:57:43;;;;;;;5.03;1.10;;;21.00;84.80;;;;;;5115195;28;20046;-74
2023/07/25 12:00:15;;;;;;;4.43;1.10;;;21.10;84.20;;;;;;5115362;28;20545;-75
2023/07/25 12:02:42;;;;;;;4.63;1.10;;;21.30;86.60;;;;;;5097248;28;20040;-74
2023/07/25 12:05:09;;;;;;;5.20;1.10;;;21.40;87.70;;;;;;5115074;28;20491;-74
2023/07/25 12:07:58;;;;;;;6.18;1.10;;;21.40;86.80;;;;;;5115460;28;20039;-74
2023/07/25 12:10:26;;;;;;;6.82;1.30;;;21.30;88.10;;;;;;5115153;28;20046;-74
2023/07/25 12:12:54;;;;;;;5.30;1.27;;;21.10;88.80;;;;;;5096667;28;20055;-74
2023/07/25 12:15:22;;;;;;;6.32;1.13;;;21.10;89.20;;;;;;5114702;28;20071;-74
2023/07/25 12:17:48;;;;;;;6.88;1.30;;;21.20;89.90;;;;;;5096863;28;20057;-75
2023/07/25 12:20:18;;;;;;;5.03;1.20;;;21.10;90.20;;;;;;5114867;28;20122;-74
2023/07/25 12:22:45;;;;;;;6.20;1.33;;;21.00;89.80;;;;;;5115193;28;20467;-74
2023/07/25 12:25:16;;;;;;;4.57;1.10;;;20.90;90.30;;;;;;5114922;28;20040;-74
2023/07/25 12:27:46;;;;;;;5.15;1.10;;;20.70;88.20;;;;;;5115081;28;20043;-73
2023/07/25 12:30:12;;;;;;;7.38;1.30;;;20.60;85.80;;;;;;5079445;28;20047;-74
2023/07/25 12:32:38;;;;;;;7.70;1.20;;;20.40;86.40;;;;;;5096581;28;20130;-74
2023/07/25 12:35:04;;;;;;;4.75;1.13;;;20.20;88.60;;;;;;5046234;28;20046;-74
2023/07/25 12:37:30;;;;;;;4.13;1.02;;;20.10;89.70;;;;;;5114624;28;20052;-74
2023/07/25 12:39:56;;;;;;;5.07;1.00;;;19.90;89.30;;;;;;5114492;28;20407;-74
2023/07/25 12:42:21;;;;;;;4.88;1.13;;;19.80;88.80;;;;;;5114643;28;20543;-74
2023/07/25 12:44:47;;;;;;;4.00;1.02;;;19.60;88.10;;;;;;5114479;28;20122;-74